sensor_id;sensor_type;location;lat;lon;timestamp;pressure;altitude;pressure_sealevel;temperature;humidity
37792;BME280;29527;55.766;37.570;2022-10-22T00:02:19;100258.03;;;6.98;69.46
37792;BME280;29527;55.766;37.570;2022-10-22T00:04:49;100268.59;;;7.00;68.95
37792;BME280;29527;55.766;37.570;2022-10-22T00:07:18;100234.31;;;6.79;69.59
37792;BME280;29527;55.766;37.570;2022-10-22T00:09:45;100263.34;;;6.98;69.45
37792;BME280;29527;55.766;37.570;2022-10-22T00:12:10;100244.91;;;6.95;68.83
37792;BME280;29527;55.766;37.570;2022-10-22T00:14:36;100264.03;;;7.02;68.85
37792;BME280;29527;55.766;37.570;2022-10-22T00:17:03;100258.63;;;7.03;68.50
37792;BME280;29527;55.766;37.570;2022-10-22T00:19:28;100249.69;;;7.04;68.68
37792;BME280;29527;55.766;37.570;2022-10-22T00:21:54;100222.34;;;6.86;68.42
37792;BME280;29527;55.766;37.570;2022-10-22T00:24:19;100211.81;;;6.85;68.49
37792;BME280;29527;55.766;37.570;2022-10-22T00:26:45;100245.41;;;7.02;68.20
37792;BME280;29527;55.766;37.570;2022-10-22T00:29:10;100248.66;;;7.07;68.11
37792;BME280;29527;55.766;37.570;2022-10-22T00:31:36;100250.34;;;7.08;68.14
37792;BME280;29527;55.766;37.570;2022-10-22T00:34:01;100243.44;;;7.06;68.16
37792;BME280;29527;55.766;37.570;2022-10-22T00:36:27;100248.00;;;7.03;68.34
37792;BME280;29527;55.766;37.570;2022-10-22T00:38:53;100237.16;;;7.07;68.03
37792;BME280;29527;55.766;37.570;2022-10-22T00:41:18;100220.09;;;6.95;67.59
37792;BME280;29527;55.766;37.570;2022-10-22T00:43:59;100236.59;;;7.16;67.88
37792;BME280;29527;55.766;37.570;2022-10-22T00:46:25;100239.81;;;7.07;67.59
37792;BME280;29527;55.766;37.570;2022-10-22T00:48:51;100235.53;;;7.04;67.37
37792;BME280;29527;55.766;37.570;2022-10-22T00:51:19;100243.50;;;7.04;67.25
37792;BME280;29527;55.766;37.570;2022-10-22T00:53:50;100238.09;;;7.06;67.60
37792;BME280;29527;55.766;37.570;2022-10-22T00:56:18;100242.56;;;7.05;67.76
37792;BME280;29527;55.766;37.570;2022-10-22T00:58:49;100244.09;;;7.09;67.89
37792;BME280;29527;55.766;37.570;2022-10-22T01:01:18;100216.09;;;6.87;67.84
37792;BME280;29527;55.766;37.570;2022-10-22T01:03:46;100246.84;;;7.08;68.05
37792;BME280;29527;55.766;37.570;2022-10-22T01:06:22;100243.94;;;7.12;68.03
37792;BME280;29527;55.766;37.570;2022-10-22T01:12:00;100245.16;;;7.21;68.05
37792;BME280;29527;55.766;37.570;2022-10-22T01:17:46;100246.22;;;7.18;67.76
37792;BME280;29527;55.766;37.570;2022-10-22T01:20:02;100243.41;;;7.51;67.30
37792;BME280;29527;55.766;37.570;2022-10-22T01:22:38;100250.78;;;7.31;66.97
37792;BME280;29527;55.766;37.570;2022-10-22T01:30:44;100241.91;;;7.16;67.50
37792;BME280;29527;55.766;37.570;2022-10-22T01:33:14;100245.34;;;7.18;68.12
37792;BME280;29527;55.766;37.570;2022-10-22T01:35:43;100248.13;;;7.16;67.92
37792;BME280;29527;55.766;37.570;2022-10-22T01:38:15;100249.84;;;7.17;67.80
37792;BME280;29527;55.766;37.570;2022-10-22T01:40:42;100245.53;;;7.15;67.93
37792;BME280;29527;55.766;37.570;2022-10-22T01:43:09;100241.25;;;7.12;68.05
37792;BME280;29527;55.766;37.570;2022-10-22T01:45:39;100252.38;;;7.19;68.16
37792;BME280;29527;55.766;37.570;2022-10-22T02:04:25;100254.66;;;7.11;68.38
37792;BME280;29527;55.766;37.570;2022-10-22T02:06:56;100251.22;;;7.09;68.47
37792;BME280;29527;55.766;37.570;2022-10-22T02:09:26;100240.94;;;7.02;68.41
37792;BME280;29527;55.766;37.570;2022-10-22T02:11:53;100253.50;;;7.00;68.69
37792;BME280;29527;55.766;37.570;2022-10-22T02:14:20;100248.44;;;6.96;68.71
37792;BME280;29527;55.766;37.570;2022-10-22T02:16:48;100256.25;;;6.99;68.55
37792;BME280;29527;55.766;37.570;2022-10-22T02:19:16;100262.44;;;6.99;68.61
37792;BME280;29527;55.766;37.570;2022-10-22T02:21:44;100263.19;;;7.01;68.61
37792;BME280;29527;55.766;37.570;2022-10-22T02:24:09;100255.22;;;7.01;68.58
37792;BME280;29527;55.766;37.570;2022-10-22T02:26:41;100262.91;;;7.06;68.72
37792;BME280;29527;55.766;37.570;2022-10-22T02:29:26;100259.97;;;7.11;68.67
37792;BME280;29527;55.766;37.570;2022-10-22T02:31:55;100262.06;;;7.06;68.48
37792;BME280;29527;55.766;37.570;2022-10-22T02:34:26;100258.44;;;7.07;68.40
37792;BME280;29527;55.766;37.570;2022-10-22T02:36:54;100242.78;;;6.86;68.77
37792;BME280;29527;55.766;37.570;2022-10-22T02:39:20;100272.13;;;7.00;68.56
37792;BME280;29527;55.766;37.570;2022-10-22T02:41:47;100266.00;;;6.98;68.87
37792;BME280;29527;55.766;37.570;2022-10-22T02:44:13;100269.28;;;7.03;68.85
37792;BME280;29527;55.766;37.570;2022-10-22T02:46:39;100274.44;;;7.07;68.56
37792;BME280;29527;55.766;37.570;2022-10-22T02:49:04;100277.84;;;7.09;68.53
37792;BME280;29527;55.766;37.570;2022-10-22T02:51:30;100276.16;;;7.08;68.35
37792;BME280;29527;55.766;37.570;2022-10-22T02:53:56;100281.47;;;7.08;68.64
37792;BME280;29527;55.766;37.570;2022-10-22T02:56:21;100272.91;;;7.02;68.70
37792;BME280;29527;55.766;37.570;2022-10-22T02:58:47;100282.84;;;6.99;68.82
37792;BME280;29527;55.766;37.570;2022-10-22T03:01:12;100275.75;;;6.99;68.88
37792;BME280;29527;55.766;37.570;2022-10-22T03:03:37;100273.09;;;6.99;68.82
37792;BME280;29527;55.766;37.570;2022-10-22T03:06:03;100277.47;;;7.00;68.64
37792;BME280;29527;55.766;37.570;2022-10-22T03:08:29;100278.56;;;6.96;69.16
37792;BME280;29527;55.766;37.570;2022-10-22T03:10:54;100274.94;;;6.97;69.13
37792;BME280;29527;55.766;37.570;2022-10-22T03:13:19;100274.09;;;6.97;68.93
37792;BME280;29527;55.766;37.570;2022-10-22T03:15:50;100275.63;;;7.01;69.10
37792;BME280;29527;55.766;37.570;2022-10-22T03:18:16;100249.25;;;6.82;69.23
37792;BME280;29527;55.766;37.570;2022-10-22T03:20:41;100276.59;;;7.00;69.32
37792;BME280;29527;55.766;37.570;2022-10-22T03:23:07;100267.91;;;6.96;69.39
37792;BME280;29527;55.766;37.570;2022-10-22T03:25:34;100242.28;;;6.79;69.57
37792;BME280;29527;55.766;37.570;2022-10-22T03:28:02;100271.44;;;6.97;69.53
37792;BME280;29527;55.766;37.570;2022-10-22T03:30:29;100271.53;;;6.95;69.21
37792;BME280;29527;55.766;37.570;2022-10-22T03:32:55;100268.84;;;6.95;69.40
37792;BME280;29527;55.766;37.570;2022-10-22T03:35:20;100233.66;;;6.75;69.26
37792;BME280;29527;55.766;37.570;2022-10-22T03:37:46;100267.06;;;6.96;69.22
37792;BME280;29527;55.766;37.570;2022-10-22T03:40:12;100264.84;;;6.88;69.51
37792;BME280;29527;55.766;37.570;2022-10-22T03:42:39;100273.34;;;6.95;69.24
37792;BME280;29527;55.766;37.570;2022-10-22T03:45:06;100243.59;;;6.72;69.46
37792;BME280;29527;55.766;37.570;2022-10-22T03:47:32;100273.59;;;6.90;69.47
37792;BME280;29527;55.766;37.570;2022-10-22T03:49:58;100260.41;;;6.88;69.44
37792;BME280;29527;55.766;37.570;2022-10-22T03:52:24;100269.03;;;6.92;69.52
37792;BME280;29527;55.766;37.570;2022-10-22T03:54:49;100276.06;;;6.93;69.30
37792;BME280;29527;55.766;37.570;2022-10-22T03:57:15;100272.47;;;6.94;69.17
37792;BME280;29527;55.766;37.570;2022-10-22T03:59:42;100276.66;;;6.98;69.29
37792;BME280;29527;55.766;37.570;2022-10-22T04:02:09;100278.75;;;6.93;69.25
37792;BME280;29527;55.766;37.570;2022-10-22T04:04:35;100268.28;;;6.90;69.44
37792;BME280;29527;55.766;37.570;2022-10-22T04:07:01;100273.59;;;6.90;69.15
37792;BME280;29527;55.766;37.570;2022-10-22T04:09:30;100255.41;;;6.82;69.34
37792;BME280;29527;55.766;37.570;2022-10-22T04:11:56;100261.16;;;6.91;69.53
37792;BME280;29527;55.766;37.570;2022-10-22T04:14:21;100263.81;;;6.91;69.56
37792;BME280;29527;55.766;37.570;2022-10-22T04:16:47;100268.38;;;6.88;69.59
37792;BME280;29527;55.766;37.570;2022-10-22T04:19:12;100271.03;;;6.88;69.55
37792;BME280;29527;55.766;37.570;2022-10-22T04:21:38;100272.75;;;6.89;70.05
37792;BME280;29527;55.766;37.570;2022-10-22T04:24:03;100273.59;;;6.90;70.03
37792;BME280;29527;55.766;37.570;2022-10-22T04:26:29;100245.13;;;6.76;69.99
37792;BME280;29527;55.766;37.570;2022-10-22T04:28:54;100266.38;;;6.92;69.83
37792;BME280;29527;55.766;37.570;2022-10-22T04:31:22;100272.47;;;6.94;69.88
37792;BME280;29527;55.766;37.570;2022-10-22T04:33:53;100273.16;;;6.98;69.91
37792;BME280;29527;55.766;37.570;2022-10-22T04:36:20;100280.28;;;6.97;69.97
37792;BME280;29527;55.766;37.570;2022-10-22T04:38:50;100279.19;;;7.01;69.82
37792;BME280;29527;55.766;37.570;2022-10-22T04:41:22;100273.84;;;7.01;69.92
37792;BME280;29527;55.766;37.570;2022-10-22T04:43:47;100280.59;;;7.07;69.43
37792;BME280;29527;55.766;37.570;2022-10-22T04:46:14;100279.94;;;7.03;69.48
37792;BME280;29527;55.766;37.570;2022-10-22T04:48:41;100283.63;;;7.01;69.42
37792;BME280;29527;55.766;37.570;2022-10-22T04:51:10;100291.06;;;7.10;69.35
37792;BME280;29527;55.766;37.570;2022-10-22T04:53:36;100283.19;;;7.09;69.63
37792;BME280;29527;55.766;37.570;2022-10-22T04:56:09;100285.22;;;7.20;69.52
37792;BME280;29527;55.766;37.570;2022-10-22T04:58:35;100283.00;;;7.12;69.01
37792;BME280;29527;55.766;37.570;2022-10-22T05:01:15;100305.47;;;7.22;69.04
37792;BME280;29527;55.766;37.570;2022-10-22T05:03:41;100295.00;;;7.19;68.83
37792;BME280;29527;55.766;37.570;2022-10-22T05:06:07;100295.88;;;7.20;68.67
37792;BME280;29527;55.766;37.570;2022-10-22T05:08:33;100287.75;;;7.21;68.74
37792;BME280;29527;55.766;37.570;2022-10-22T05:10:59;100282.44;;;7.21;68.61
37792;BME280;29527;55.766;37.570;2022-10-22T05:13:24;100293.59;;;7.28;68.79
37792;BME280;29527;55.766;37.570;2022-10-22T05:15:50;100279.69;;;7.23;68.31
37792;BME280;29527;55.766;37.570;2022-10-22T05:18:16;100289.72;;;7.33;68.46
37792;BME280;29527;55.766;37.570;2022-10-22T05:20:41;100295.63;;;7.39;68.41
37792;BME280;29527;55.766;37.570;2022-10-22T05:23:07;100294.41;;;7.44;67.91
37792;BME280;29527;55.766;37.570;2022-10-22T05:25:39;100299.28;;;7.52;67.84
37792;BME280;29527;55.766;37.570;2022-10-22T05:28:04;100293.19;;;7.50;67.40
37792;BME280;29527;55.766;37.570;2022-10-22T05:30:30;100299.09;;;7.55;67.25
37792;BME280;29527;55.766;37.570;2022-10-22T05:32:55;100308.78;;;7.56;67.31
37792;BME280;29527;55.766;37.570;2022-10-22T05:35:21;100294.72;;;7.54;67.26
37792;BME280;29527;55.766;37.570;2022-10-22T05:37:46;100302.25;;;7.62;67.16
37792;BME280;29527;55.766;37.570;2022-10-22T05:40:12;100304.81;;;7.64;67.33
37792;BME280;29527;55.766;37.570;2022-10-22T05:42:38;100305.47;;;7.67;67.08
37792;BME280;29527;55.766;37.570;2022-10-22T05:45:04;100314.53;;;7.79;67.11
37792;BME280;29527;55.766;37.570;2022-10-22T05:47:29;100307.97;;;7.85;66.49
37792;BME280;29527;55.766;37.570;2022-10-22T05:49:55;100266.25;;;7.69;66.37
37792;BME280;29527;55.766;37.570;2022-10-22T05:52:23;100278.47;;;7.88;66.37
37792;BME280;29527;55.766;37.570;2022-10-22T05:54:49;100301.75;;;8.13;65.76
37792;BME280;29527;55.766;37.570;2022-10-22T05:57:14;100307.09;;;8.28;65.27
37792;BME280;29527;55.766;37.570;2022-10-22T05:59:40;100305.94;;;8.32;64.38
37792;BME280;29527;55.766;37.570;2022-10-22T06:02:09;100310.25;;;8.35;64.37
37792;BME280;29527;55.766;37.570;2022-10-22T06:04:35;100307.47;;;8.36;64.34
37792;BME280;29527;55.766;37.570;2022-10-22T06:07:01;100307.84;;;8.44;64.01
37792;BME280;29527;55.766;37.570;2022-10-22T06:09:32;100316.66;;;8.74;63.35
37792;BME280;29527;55.766;37.570;2022-10-22T06:11:59;100307.19;;;9.10;62.22
37792;BME280;29527;55.766;37.570;2022-10-22T06:14:25;100309.06;;;9.61;60.87
37792;BME280;29527;55.766;37.570;2022-10-22T06:16:51;100303.91;;;10.10;59.23
37792;BME280;29527;55.766;37.570;2022-10-22T06:19:19;100312.53;;;10.53;58.07
37792;BME280;29527;55.766;37.570;2022-10-22T06:21:46;100316.66;;;10.70;57.61
37792;BME280;29527;55.766;37.570;2022-10-22T06:24:12;100316.78;;;10.68;56.94
37792;BME280;29527;55.766;37.570;2022-10-22T06:26:38;100318.88;;;10.52;57.04
37792;BME280;29527;55.766;37.570;2022-10-22T06:29:05;100280.72;;;10.11;57.65
37792;BME280;29527;55.766;37.570;2022-10-22T06:31:30;100305.00;;;10.08;58.01
37792;BME280;29527;55.766;37.570;2022-10-22T06:34:06;100314.09;;;10.05;58.69
37792;BME280;29527;55.766;37.570;2022-10-22T06:36:32;100307.06;;;9.91;58.27
37792;BME280;29527;55.766;37.570;2022-10-22T06:38:58;100313.28;;;9.91;58.64
37792;BME280;29527;55.766;37.570;2022-10-22T06:41:24;100310.69;;;9.77;58.90
37792;BME280;29527;55.766;37.570;2022-10-22T06:43:49;100317.97;;;9.75;58.72
37792;BME280;29527;55.766;37.570;2022-10-22T06:46:18;100314.97;;;9.67;58.47
37792;BME280;29527;55.766;37.570;2022-10-22T06:48:52;100323.75;;;9.69;58.40
37792;BME280;29527;55.766;37.570;2022-10-22T06:51:18;100321.28;;;9.66;58.33
37792;BME280;29527;55.766;37.570;2022-10-22T06:53:45;100333.34;;;9.71;58.24
37792;BME280;29527;55.766;37.570;2022-10-22T06:56:14;100325.25;;;9.73;58.40
37792;BME280;29527;55.766;37.570;2022-10-22T06:58:40;100324.81;;;9.79;58.02
37792;BME280;29527;55.766;37.570;2022-10-22T07:01:09;100326.09;;;9.86;57.38
37792;BME280;29527;55.766;37.570;2022-10-22T07:03:35;100333.25;;;9.99;56.91
37792;BME280;29527;55.766;37.570;2022-10-22T07:06:05;100331.31;;;10.14;57.42
37792;BME280;29527;55.766;37.570;2022-10-22T07:08:32;100326.63;;;10.17;56.72
37792;BME280;29527;55.766;37.570;2022-10-22T07:11:08;100343.81;;;10.39;57.16
37792;BME280;29527;55.766;37.570;2022-10-22T07:13:34;100339.84;;;10.32;57.29
37792;BME280;29527;55.766;37.570;2022-10-22T07:16:00;100341.03;;;10.28;58.12
37792;BME280;29527;55.766;37.570;2022-10-22T07:18:26;100320.53;;;10.15;59.13
37792;BME280;29527;55.766;37.570;2022-10-22T07:20:51;100339.25;;;10.41;58.30
37792;BME280;29527;55.766;37.570;2022-10-22T07:23:17;100347.53;;;10.62;57.82
37792;BME280;29527;55.766;37.570;2022-10-22T07:25:42;100339.88;;;10.82;56.34
37792;BME280;29527;55.766;37.570;2022-10-22T07:28:08;100338.69;;;10.86;56.42
37792;BME280;29527;55.766;37.570;2022-10-22T07:30:35;100331.72;;;10.84;56.03
37792;BME280;29527;55.766;37.570;2022-10-22T07:33:01;100346.78;;;10.98;56.36
37792;BME280;29527;55.766;37.570;2022-10-22T07:35:26;100343.25;;;10.97;56.43
37792;BME280;29527;55.766;37.570;2022-10-22T07:37:52;100346.91;;;10.96;55.92
37792;BME280;29527;55.766;37.570;2022-10-22T07:40:17;100346.66;;;10.99;55.14
37792;BME280;29527;55.766;37.570;2022-10-22T07:42:42;100342.56;;;11.06;54.66
37792;BME280;29527;55.766;37.570;2022-10-22T07:45:08;100341.22;;;11.01;54.54
37792;BME280;29527;55.766;37.570;2022-10-22T07:47:34;100344.13;;;10.85;55.04
37792;BME280;29527;55.766;37.570;2022-10-22T07:49:59;100340.16;;;10.66;55.43
37792;BME280;29527;55.766;37.570;2022-10-22T07:52:25;100350.91;;;10.53;55.55
37792;BME280;29527;55.766;37.570;2022-10-22T07:54:51;100342.00;;;10.40;56.51
37792;BME280;29527;55.766;37.570;2022-10-22T07:57:16;100339.34;;;10.27;57.00
37792;BME280;29527;55.766;37.570;2022-10-22T07:59:42;100341.94;;;10.15;57.02
37792;BME280;29527;55.766;37.570;2022-10-22T08:02:10;100344.47;;;10.17;57.53
37792;BME280;29527;55.766;37.570;2022-10-22T08:04:35;100341.28;;;10.12;57.21
37792;BME280;29527;55.766;37.570;2022-10-22T08:07:01;100336.22;;;10.20;56.71
37792;BME280;29527;55.766;37.570;2022-10-22T08:09:26;100341.03;;;10.28;56.20
37792;BME280;29527;55.766;37.570;2022-10-22T08:11:51;100340.41;;;10.37;55.92
37792;BME280;29527;55.766;37.570;2022-10-22T08:14:17;100329.38;;;10.42;55.84
37792;BME280;29527;55.766;37.570;2022-10-22T08:16:43;100338.28;;;10.42;55.83
37792;BME280;29527;55.766;37.570;2022-10-22T08:19:09;100312.06;;;10.22;55.54
37792;BME280;29527;55.766;37.570;2022-10-22T08:21:34;100332.06;;;10.29;55.47
37792;BME280;29527;55.766;37.570;2022-10-22T08:23:59;100343.63;;;10.29;55.57
37792;BME280;29527;55.766;37.570;2022-10-22T08:26:25;100335.69;;;10.28;55.90
37792;BME280;29527;55.766;37.570;2022-10-22T08:28:51;100344.03;;;10.36;56.24
37792;BME280;29527;55.766;37.570;2022-10-22T08:31:16;100335.47;;;10.31;55.83
37792;BME280;29527;55.766;37.570;2022-10-22T08:33:41;100346.91;;;10.33;55.81
37792;BME280;29527;55.766;37.570;2022-10-22T08:36:07;100349.41;;;10.23;55.91
37792;BME280;29527;55.766;37.570;2022-10-22T08:38:33;100340.00;;;10.04;55.95
37792;BME280;29527;55.766;37.570;2022-10-22T08:49:32;100348.56;;;9.84;56.87
37792;BME280;29527;55.766;37.570;2022-10-22T08:51:59;100352.94;;;9.72;57.06
37792;BME280;29527;55.766;37.570;2022-10-22T08:54:52;100349.63;;;9.81;57.61
37792;BME280;29527;55.766;37.570;2022-10-22T08:59:56;100337.66;;;9.74;57.55
37792;BME280;29527;55.766;37.570;2022-10-22T09:05:37;100347.91;;;10.06;57.08
37792;BME280;29527;55.766;37.570;2022-10-22T09:08:10;100346.72;;;10.10;56.51
37792;BME280;29527;55.766;37.570;2022-10-22T09:10:39;100333.78;;;10.17;55.72
37792;BME280;29527;55.766;37.570;2022-10-22T09:13:10;100345.34;;;10.30;55.58
37792;BME280;29527;55.766;37.570;2022-10-22T09:15:37;100344.47;;;10.30;55.99
37792;BME280;29527;55.766;37.570;2022-10-22T09:20:44;100332.78;;;10.31;55.72
37792;BME280;29527;55.766;37.570;2022-10-22T09:23:23;100344.19;;;10.72;55.58
37792;BME280;29527;55.766;37.570;2022-10-22T09:25:51;100336.34;;;10.44;55.03
37792;BME280;29527;55.766;37.570;2022-10-22T09:28:17;100332.38;;;10.37;55.70
37792;BME280;29527;55.766;37.570;2022-10-22T09:30:43;100336.63;;;10.40;55.26
37792;BME280;29527;55.766;37.570;2022-10-22T09:33:13;100336.97;;;10.35;55.50
37792;BME280;29527;55.766;37.570;2022-10-22T09:35:58;100329.50;;;10.40;55.93
37792;BME280;29527;55.766;37.570;2022-10-22T09:38:30;100340.41;;;10.37;55.29
37792;BME280;29527;55.766;37.570;2022-10-22T09:40:59;100329.38;;;10.29;55.75
37792;BME280;29527;55.766;37.570;2022-10-22T09:43:24;100315.59;;;10.09;55.88
37792;BME280;29527;55.766;37.570;2022-10-22T09:46:02;100334.22;;;10.24;56.25
37792;BME280;29527;55.766;37.570;2022-10-22T09:48:35;100338.50;;;10.13;56.39
37792;BME280;29527;55.766;37.570;2022-10-22T09:51:06;100329.94;;;10.08;56.05
37792;BME280;29527;55.766;37.570;2022-10-22T09:53:38;100337.13;;;10.08;56.21
37792;BME280;29527;55.766;37.570;2022-10-22T09:58:49;100324.06;;;10.03;56.58
37792;BME280;29527;55.766;37.570;2022-10-22T10:01:21;100327.91;;;10.12;56.70
37792;BME280;29527;55.766;37.570;2022-10-22T10:03:48;100333.47;;;10.09;56.48
37792;BME280;29527;55.766;37.570;2022-10-22T10:06:21;100327.59;;;10.16;56.48
37792;BME280;29527;55.766;37.570;2022-10-22T10:08:47;100320.19;;;10.07;56.56
37792;BME280;29527;55.766;37.570;2022-10-22T10:14:24;100309.19;;;10.12;56.36
37792;BME280;29527;55.766;37.570;2022-10-22T10:26:57;100322.25;;;10.16;57.10
37792;BME280;29527;55.766;37.570;2022-10-22T10:29:38;100319.34;;;10.19;57.06
37792;BME280;29527;55.766;37.570;2022-10-22T10:34:53;100315.16;;;10.28;55.88
37792;BME280;29527;55.766;37.570;2022-10-22T10:37:27;100284.69;;;10.05;56.05
37792;BME280;29527;55.766;37.570;2022-10-22T10:42:50;100306.16;;;10.29;56.04
37792;BME280;29527;55.766;37.570;2022-10-22T10:51:49;100308.09;;;10.40;55.15
37792;BME280;29527;55.766;37.570;2022-10-22T10:54:15;100302.94;;;10.37;55.42
37792;BME280;29527;55.766;37.570;2022-10-22T10:56:49;100304.25;;;10.18;55.10
37792;BME280;29527;55.766;37.570;2022-10-22T11:07:26;100288.47;;;9.89;56.22
37792;BME280;29527;55.766;37.570;2022-10-22T11:09:59;100285.00;;;9.87;55.97
37792;BME280;29527;55.766;37.570;2022-10-22T11:12:44;100261.16;;;9.84;56.62
37792;BME280;29527;55.766;37.570;2022-10-22T11:17:49;100281.91;;;9.94;56.28
37792;BME280;29527;55.766;37.570;2022-10-22T11:20:32;100290.34;;;10.00;56.36
37792;BME280;29527;55.766;37.570;2022-10-22T11:23:10;100282.88;;;10.05;56.70
37792;BME280;29527;55.766;37.570;2022-10-22T11:25:44;100281.16;;;10.04;56.41
37792;BME280;29527;55.766;37.570;2022-10-22T11:28:22;100281.03;;;10.06;56.28
37792;BME280;29527;55.766;37.570;2022-10-22T11:30:57;100282.00;;;10.05;56.49
37792;BME280;29527;55.766;37.570;2022-10-22T11:33:27;100277.09;;;9.99;56.54
37792;BME280;29527;55.766;37.570;2022-10-22T11:35:58;100272.94;;;9.95;56.08
37792;BME280;29527;55.766;37.570;2022-10-22T11:38:27;100272.19;;;9.93;56.28
37792;BME280;29527;55.766;37.570;2022-10-22T11:41:12;100270.22;;;10.08;56.37
37792;BME280;29527;55.766;37.570;2022-10-22T11:49:00;100265.19;;;10.03;56.17
37792;BME280;29527;55.766;37.570;2022-10-22T11:54:02;100233.47;;;9.72;55.60
37792;BME280;29527;55.766;37.570;2022-10-22T11:56:51;100263.97;;;9.83;55.95
37792;BME280;29527;55.766;37.570;2022-10-22T11:59:43;100265.31;;;9.88;56.45
37792;BME280;29527;55.766;37.570;2022-10-22T12:02:44;100265.75;;;9.82;56.52
37792;BME280;29527;55.766;37.570;2022-10-22T12:08:22;100258.69;;;9.81;57.00
37792;BME280;29527;55.766;37.570;2022-10-22T12:13:23;100253.50;;;9.67;56.86
37792;BME280;29527;55.766;37.570;2022-10-22T12:15:53;100255.81;;;9.58;56.39
37792;BME280;29527;55.766;37.570;2022-10-22T12:18:24;100255.28;;;9.53;57.01
37792;BME280;29527;55.766;37.570;2022-10-22T12:20:52;100251.34;;;9.46;56.90
37792;BME280;29527;55.766;37.570;2022-10-22T12:23:20;100246.22;;;9.43;57.20
37792;BME280;29527;55.766;37.570;2022-10-22T12:25:49;100239.91;;;9.44;57.53
37792;BME280;29527;55.766;37.570;2022-10-22T12:28:14;100237.97;;;9.46;57.64
37792;BME280;29527;55.766;37.570;2022-10-22T12:30:40;100236.28;;;9.45;57.00
37792;BME280;29527;55.766;37.570;2022-10-22T12:33:19;100247.28;;;9.53;57.31
37792;BME280;29527;55.766;37.570;2022-10-22T12:35:46;100242.25;;;9.48;57.50
37792;BME280;29527;55.766;37.570;2022-10-22T12:38:21;100239.03;;;9.56;57.80
37792;BME280;29527;55.766;37.570;2022-10-22T12:40:49;100234.00;;;9.52;57.63
37792;BME280;29527;55.766;37.570;2022-10-22T12:43:23;100233.81;;;9.55;57.49
37792;BME280;29527;55.766;37.570;2022-10-22T12:45:49;100224.19;;;9.52;57.16
37792;BME280;29527;55.766;37.570;2022-10-22T12:48:30;100221.81;;;9.60;56.99
37792;BME280;29527;55.766;37.570;2022-10-22T12:51:00;100226.75;;;9.54;57.34
37792;BME280;29527;55.766;37.570;2022-10-22T12:53:33;100223.97;;;9.55;57.53
37792;BME280;29527;55.766;37.570;2022-10-22T12:56:03;100226.50;;;9.83;57.06
37792;BME280;29527;55.766;37.570;2022-10-22T12:58:35;100228.13;;;9.59;56.75
37792;BME280;29527;55.766;37.570;2022-10-22T13:01:02;100210.81;;;9.39;57.05
37792;BME280;29527;55.766;37.570;2022-10-22T13:03:33;100223.22;;;9.40;57.19
37792;BME280;29527;55.766;37.570;2022-10-22T13:08:44;100230.34;;;9.27;56.46
37792;BME280;29527;55.766;37.570;2022-10-22T13:11:10;100229.19;;;9.18;56.45
37792;BME280;29527;55.766;37.570;2022-10-22T13:16:21;100221.78;;;9.09;56.58
37792;BME280;29527;55.766;37.570;2022-10-22T13:18:49;100201.56;;;8.79;56.66
37792;BME280;29527;55.766;37.570;2022-10-22T13:23:58;100221.00;;;8.81;56.54
37792;BME280;29527;55.766;37.570;2022-10-22T13:26:34;100192.31;;;8.57;56.83
37792;BME280;29527;55.766;37.570;2022-10-22T13:29:02;100226.22;;;8.69;56.03
37792;BME280;29527;55.766;37.570;2022-10-22T13:31:33;100215.81;;;8.65;55.80
37792;BME280;29527;55.766;37.570;2022-10-22T13:34:03;100217.84;;;8.61;55.90
37792;BME280;29527;55.766;37.570;2022-10-22T13:36:30;100183.47;;;8.42;54.97
37792;BME280;29527;55.766;37.570;2022-10-22T13:38:56;100217.28;;;8.56;54.77
37792;BME280;29527;55.766;37.570;2022-10-22T13:41:23;100213.88;;;8.54;55.09
37792;BME280;29527;55.766;37.570;2022-10-22T13:43:49;100192.66;;;8.38;55.45
37792;BME280;29527;55.766;37.570;2022-10-22T13:46:15;100175.31;;;8.30;56.01
37792;BME280;29527;55.766;37.570;2022-10-22T13:48:42;100208.31;;;8.42;56.46
37792;BME280;29527;55.766;37.570;2022-10-22T13:51:16;100216.78;;;8.49;56.91
37792;BME280;29527;55.766;37.570;2022-10-22T13:53:44;100214.44;;;8.44;56.37
37792;BME280;29527;55.766;37.570;2022-10-22T13:56:16;100207.38;;;8.43;56.25
37792;BME280;29527;55.766;37.570;2022-10-22T13:58:43;100176.78;;;8.22;56.07
37792;BME280;29527;55.766;37.570;2022-10-22T14:01:26;100195.00;;;8.42;55.93
37792;BME280;29527;55.766;37.570;2022-10-22T14:03:53;100195.59;;;8.33;55.89
37792;BME280;29527;55.766;37.570;2022-10-22T14:06:21;100200.09;;;8.32;55.58
37792;BME280;29527;55.766;37.570;2022-10-22T14:08:54;100191.44;;;8.29;55.87
37792;BME280;29527;55.766;37.570;2022-10-22T14:11:20;100188.09;;;8.25;55.52
37792;BME280;29527;55.766;37.570;2022-10-22T14:13:46;100189.59;;;8.29;55.99
37792;BME280;29527;55.766;37.570;2022-10-22T14:16:22;100197.88;;;8.39;56.26
37792;BME280;29527;55.766;37.570;2022-10-22T14:18:49;100203.53;;;8.35;56.11
37792;BME280;29527;55.766;37.570;2022-10-22T14:21:15;100199.97;;;8.34;56.48
37792;BME280;29527;55.766;37.570;2022-10-22T14:23:43;100202.56;;;8.36;56.36
37792;BME280;29527;55.766;37.570;2022-10-22T14:26:24;100201.94;;;8.45;56.43
37792;BME280;29527;55.766;37.570;2022-10-22T14:28:51;100201.59;;;8.37;56.56
37792;BME280;29527;55.766;37.570;2022-10-22T14:31:16;100189.50;;;8.31;56.96
37792;BME280;29527;55.766;37.570;2022-10-22T14:33:42;100198.19;;;8.35;57.65
37792;BME280;29527;55.766;37.570;2022-10-22T14:36:12;100204.81;;;8.42;57.84
37792;BME280;29527;55.766;37.570;2022-10-22T14:38:39;100187.69;;;8.31;58.28
37792;BME280;29527;55.766;37.570;2022-10-22T14:41:15;100195.41;;;8.36;58.61